Time,TemperatureF,DewpointF,PressureIn,WindDirection,WindDirectionDegrees,WindSpeedMPH,WindSpeedGustMPH,Humidity,HourlyPrecipIn,Conditions,Clouds,dailyrainin,SolarRadiationWatts/m^2,SoftwareType,DateUTC
2013-03-07 00:22:00,28.0,17.0,-100.00,SSW,211,2.0,9.0,64,0.00,,,0.00,0.000000,,2013-03-07 09:22:00,
2013-03-07 00:32:00,28.0,17.0,-100.00,SSW,211,2.0,9.0,64,0.00,,,0.00,0.000000,,2013-03-07 09:32:00,
2013-03-07 00:42:00,28.0,17.0,-100.00,SSW,211,2.0,9.0,64,0.00,,,0.00,0.000000,,2013-03-07 09:42:00,
2013-03-07 00:52:00,28.0,17.0,-100.00,SSW,211,2.0,9.0,64,0.00,,,0.00,0.000000,,2013-03-07 09:52:00,
2013-03-07 01:22:00,29.0,17.0,-100.00,SW,236,5.0,7.0,61,0.00,,,0.00,0.000000,,2013-03-07 10:22:00,
2013-03-07 01:32:00,29.0,17.0,-100.00,SW,236,5.0,7.0,61,0.00,,,0.00,0.000000,,2013-03-07 10:32:00,
2013-03-07 01:42:00,29.0,17.0,-100.00,SW,236,5.0,7.0,61,0.00,,,0.00,0.000000,,2013-03-07 10:42:00,
2013-03-07 01:51:00,29.0,17.0,-100.00,SW,236,5.0,7.0,61,0.00,,,0.00,0.000000,,2013-03-07 10:51:00,
2013-03-07 02:22:00,28.0,16.0,-100.00,WSW,251,6.0,9.0,59,0.00,,,0.00,0.000000,,2013-03-07 11:22:00,
2013-03-07 02:33:00,28.0,16.0,-100.00,WSW,251,6.0,9.0,59,0.00,,,0.00,0.000000,,2013-03-07 11:33:00,
2013-03-07 02:42:00,28.0,16.0,-100.00,WSW,251,6.0,9.0,59,0.00,,,0.00,0.000000,,2013-03-07 11:42:00,
2013-03-07 02:52:00,28.0,16.0,-100.00,WSW,251,6.0,9.0,59,0.00,,,0.00,0.000000,,2013-03-07 11:52:00,
2013-03-07 03:22:00,27.0,18.0,-100.00,SW,216,4.0,9.0,67,0.00,,,0.00,0.000000,,2013-03-07 12:22:00,
2013-03-07 03:33:00,27.0,18.0,-100.00,SW,216,4.0,9.0,67,0.00,,,0.00,0.000000,,2013-03-07 12:33:00,
2013-03-07 03:42:00,27.0,18.0,-100.00,SW,216,4.0,9.0,67,0.00,,,0.00,0.000000,,2013-03-07 12:42:00,
2013-03-07 03:52:00,27.0,18.0,-100.00,SW,216,4.0,9.0,67,0.00,,,0.00,0.000000,,2013-03-07 12:52:00,
2013-03-07 04:22:00,27.0,15.0,-100.00,WSW,244,5.0,8.0,60,0.00,,,0.00,0.000000,,2013-03-07 13:22:00,
2013-03-07 04:32:00,27.0,15.0,-100.00,WSW,244,5.0,8.0,60,0.00,,,0.00,0.000000,,2013-03-07 13:32:00,
2013-03-07 04:42:00,27.0,15.0,-100.00,WSW,244,5.0,8.0,60,0.00,,,0.00,0.000000,,2013-03-07 13:42:00,
2013-03-07 04:52:00,27.0,15.0,-100.00,WSW,244,5.0,8.0,60,0.00,,,0.00,0.000000,,2013-03-07 13:52:00,
2013-03-07 05:22:00,28.0,16.0,-100.00,SW,234,7.0,11.0,60,0.00,,,0.00,0.000000,,2013-03-07 14:22:00,
2013-03-07 05:32:00,28.0,16.0,-100.00,SW,234,7.0,11.0,60,0.00,,,0.00,0.000000,,2013-03-07 14:32:00,
2013-03-07 05:42:00,28.0,16.0,-100.00,SW,234,7.0,11.0,60,0.00,,,0.00,0.000000,,2013-03-07 14:42:00,
2013-03-07 05:52:00,28.0,16.0,-100.00,SW,234,7.0,11.0,60,0.00,,,0.00,0.000000,,2013-03-07 14:52:00,
2013-03-07 06:22:00,26.0,15.0,-100.00,SW,231,3.0,9.0,62,0.00,,,0.00,0.000000,,2013-03-07 15:22:00,
2013-03-07 06:32:00,26.0,15.0,-100.00,SW,231,3.0,9.0,62,0.00,,,0.00,0.000000,,2013-03-07 15:32:00,
2013-03-07 06:42:00,26.0,15.0,-100.00,SW,231,3.0,9.0,62,0.00,,,0.00,0.000000,,2013-03-07 15:42:00,
2013-03-07 06:52:00,26.0,15.0,-100.00,SW,231,3.0,9.0,62,0.00,,,0.00,0.000000,,2013-03-07 15:52:00,
2013-03-07 07:23:00,26.0,13.0,-100.00,North,5,1.0,4.0,58,0.00,,,0.00,6.000000,,2013-03-07 16:23:00,
2013-03-07 07:32:00,26.0,13.0,-100.00,North,5,1.0,4.0,58,0.00,,,0.00,6.000000,,2013-03-07 16:32:00,
2013-03-07 07:42:00,26.0,13.0,-100.00,North,5,1.0,4.0,58,0.00,,,0.00,6.000000,,2013-03-07 16:42:00,
2013-03-07 07:52:00,26.0,13.0,-100.00,North,5,1.0,4.0,58,0.00,,,0.00,6.000000,,2013-03-07 16:52:00,
2013-03-07 08:22:00,31.0,18.0,-100.00,NW,306,0.0,4.0,58,0.00,,,0.00,83.000000,,2013-03-07 17:22:00,
2013-03-07 08:32:00,31.0,18.0,-100.00,NW,306,0.0,4.0,58,0.00,,,0.00,83.000000,,2013-03-07 17:32:00,
2013-03-07 08:42:00,31.0,18.0,-100.00,NW,306,0.0,4.0,58,0.00,,,0.00,83.000000,,2013-03-07 17:42:00,
2013-03-07 08:52:00,31.0,18.0,-100.00,NW,306,0.0,4.0,58,0.00,,,0.00,83.000000,,2013-03-07 17:52:00,
2013-03-07 09:21:00,38.0,24.0,-100.00,ENE,73,1.0,3.0,57,0.00,,,0.00,240.000000,,2013-03-07 18:21:00,
2013-03-07 10:23:00,40.0,19.0,-100.00,SSW,199,2.0,4.0,43,-99.99,,,0.00,376.000000,,2013-03-07 19:23:00,
2013-03-07 10:33:00,40.0,19.0,-100.00,SSW,199,2.0,4.0,43,-99.99,,,0.00,376.000000,,2013-03-07 19:33:00,
2013-03-07 10:43:00,40.0,19.0,-100.00,SSW,199,2.0,4.0,43,-99.99,,,0.00,376.000000,,2013-03-07 19:43:00,
2013-03-07 10:52:00,40.0,19.0,-100.00,SSW,199,2.0,4.0,43,-99.99,,,0.00,376.000000,,2013-03-07 19:52:00,
2013-03-07 11:22:00,42.0,19.0,-100.00,East,80,2.0,4.0,40,0.00,,,0.00,479.000000,,2013-03-07 20:22:00,
2013-03-07 11:32:00,42.0,19.0,-100.00,East,80,2.0,4.0,40,0.00,,,0.00,479.000000,,2013-03-07 20:32:00,
2013-03-07 11:42:00,42.0,19.0,-100.00,East,80,2.0,4.0,40,0.00,,,0.00,479.000000,,2013-03-07 20:42:00,
2013-03-07 11:52:00,42.0,19.0,-100.00,East,80,2.0,4.0,40,0.00,,,0.00,479.000000,,2013-03-07 20:52:00,
2013-03-07 12:22:00,41.0,23.0,-100.00,NNE,22,5.0,8.0,48,0.00,,,0.00,385.000000,,2013-03-07 21:22:00,
2013-03-07 12:32:00,41.0,23.0,-100.00,NNE,22,5.0,8.0,48,0.00,,,0.00,385.000000,,2013-03-07 21:32:00,
2013-03-07 12:42:00,41.0,23.0,-100.00,NNE,22,5.0,8.0,48,0.00,,,0.00,385.000000,,2013-03-07 21:42:00,
2013-03-07 12:52:00,41.0,23.0,-100.00,NNE,22,5.0,8.0,48,0.00,,,0.00,385.000000,,2013-03-07 21:52:00,
2013-03-07 13:22:00,44.0,23.0,-100.00,ENE,60,5.0,9.0,44,0.00,,,0.00,547.000000,,2013-03-07 22:22:00,
2013-03-07 13:32:00,44.0,23.0,-100.00,ENE,60,5.0,9.0,44,0.00,,,0.00,547.000000,,2013-03-07 22:32:00,
2013-03-07 13:42:00,44.0,23.0,-100.00,ENE,60,5.0,9.0,44,0.00,,,0.00,547.000000,,2013-03-07 22:42:00,
2013-03-07 13:52:00,44.0,23.0,-100.00,ENE,60,5.0,9.0,44,0.00,,,0.00,547.000000,,2013-03-07 22:52:00,
2013-03-07 14:22:00,43.0,24.0,-100.00,NE,36,7.0,11.0,47,0.00,,,0.00,510.000000,,2013-03-07 23:22:00,
2013-03-07 14:32:00,43.0,24.0,-100.00,NE,36,7.0,11.0,47,0.00,,,0.00,510.000000,,2013-03-07 23:32:00,
2013-03-07 14:42:00,43.0,24.0,-100.00,NE,36,7.0,11.0,47,0.00,,,0.00,510.000000,,2013-03-07 23:42:00,
2013-03-07 14:52:00,43.0,24.0,-100.00,NE,36,7.0,11.0,47,0.00,,,0.00,510.000000,,2013-03-07 23:52:00,
2013-03-07 15:22:00,44.0,26.0,-100.00,NE,48,4.0,9.0,48,0.00,,,0.00,421.000000,,2013-03-08 00:22:00,
2013-03-07 15:33:00,44.0,26.0,-100.00,NE,48,4.0,9.0,48,0.00,,,0.00,421.000000,,2013-03-08 00:33:00,
2013-03-07 15:43:00,44.0,26.0,-100.00,NE,48,4.0,9.0,48,0.00,,,0.00,421.000000,,2013-03-08 00:43:00,
2013-03-07 15:52:00,44.0,26.0,-100.00,NE,48,4.0,9.0,48,0.00,,,0.00,421.000000,,2013-03-08 00:52:00,
2013-03-07 16:21:00,42.0,20.0,-100.00,North,9,6.0,9.0,41,0.00,,,0.00,297.000000,,2013-03-08 01:21:00,
2013-03-07 16:32:00,42.0,20.0,-100.00,North,9,6.0,9.0,41,0.00,,,0.00,297.000000,,2013-03-08 01:32:00,
2013-03-07 16:42:00,42.0,20.0,-100.00,North,9,6.0,9.0,41,0.00,,,0.00,297.000000,,2013-03-08 01:42:00,
2013-03-07 16:51:00,42.0,20.0,-100.00,North,9,6.0,9.0,41,0.00,,,0.00,297.000000,,2013-03-08 01:51:00,
2013-03-07 17:21:00,40.0,20.0,-100.00,North,8,3.0,8.0,45,0.00,,,0.00,122.000000,,2013-03-08 02:21:00,
2013-03-07 17:31:00,40.0,20.0,-100.00,North,8,3.0,8.0,45,0.00,,,0.00,122.000000,,2013-03-08 02:31:00,
2013-03-07 17:41:00,40.0,20.0,-100.00,North,8,3.0,8.0,45,0.00,,,0.00,122.000000,,2013-03-08 02:41:00,
2013-03-07 17:52:00,40.0,20.0,-100.00,North,8,3.0,8.0,45,0.00,,,0.00,122.000000,,2013-03-08 02:52:00,
2013-03-07 18:22:00,36.0,20.0,-100.00,NE,41,3.0,6.0,52,0.00,,,0.00,33.000000,,2013-03-08 03:22:00,
2013-03-07 18:32:00,36.0,20.0,-100.00,NE,41,3.0,6.0,52,0.00,,,0.00,33.000000,,2013-03-08 03:32:00,
2013-03-07 18:42:00,36.0,20.0,-100.00,NE,41,3.0,6.0,52,0.00,,,0.00,33.000000,,2013-03-08 03:42:00,
2013-03-07 18:52:00,36.0,20.0,-100.00,NE,41,3.0,6.0,52,0.00,,,0.00,33.000000,,2013-03-08 03:52:00,
2013-03-07 19:21:00,34.0,22.0,-100.00,WSW,250,2.0,4.0,61,0.00,,,0.00,0.000000,,2013-03-08 04:21:00,
2013-03-07 19:32:00,34.0,22.0,-100.00,WSW,250,2.0,4.0,61,0.00,,,0.00,0.000000,,2013-03-08 04:32:00,
2013-03-07 19:42:00,34.0,22.0,-100.00,WSW,250,2.0,4.0,61,0.00,,,0.00,0.000000,,2013-03-08 04:42:00,
2013-03-07 19:51:00,34.0,22.0,-100.00,WSW,250,2.0,4.0,61,0.00,,,0.00,0.000000,,2013-03-08 04:51:00,
2013-03-07 20:22:00,34.0,21.0,-100.00,WNW,282,4.0,6.0,58,0.00,,,0.00,0.000000,,2013-03-08 05:22:00,
2013-03-07 20:32:00,34.0,21.0,-100.00,WNW,282,4.0,6.0,58,0.00,,,0.00,0.000000,,2013-03-08 05:32:00,
2013-03-07 20:42:00,34.0,21.0,-100.00,WNW,282,4.0,6.0,58,0.00,,,0.00,0.000000,,2013-03-08 05:42:00,
2013-03-07 20:52:00,34.0,21.0,-100.00,WNW,282,4.0,6.0,58,0.00,,,0.00,0.000000,,2013-03-08 05:52:00,
2013-03-07 21:21:00,33.0,19.0,-100.00,WNW,292,3.0,8.0,57,0.00,,,0.00,0.000000,,2013-03-08 06:21:00,
2013-03-07 21:32:00,33.0,19.0,-100.00,WNW,292,3.0,8.0,57,0.00,,,0.00,0.000000,,2013-03-08 06:32:00,
2013-03-07 21:42:00,33.0,19.0,-100.00,WNW,292,3.0,8.0,57,0.00,,,0.00,0.000000,,2013-03-08 06:42:00,
2013-03-07 21:51:00,33.0,19.0,-100.00,WNW,292,3.0,8.0,57,0.00,,,0.00,0.000000,,2013-03-08 06:51:00,
2013-03-07 22:21:00,33.0,23.0,-100.00,ENE,74,1.0,9.0,66,0.00,,,0.00,0.000000,,2013-03-08 07:21:00,
2013-03-07 22:31:00,33.0,23.0,-100.00,ENE,74,1.0,9.0,66,0.00,,,0.00,0.000000,,2013-03-08 07:31:00,
2013-03-07 22:41:00,33.0,23.0,-100.00,ENE,74,1.0,9.0,66,0.00,,,0.00,0.000000,,2013-03-08 07:41:00,
2013-03-07 22:51:00,33.0,23.0,-100.00,ENE,74,1.0,9.0,66,0.00,,,0.00,0.000000,,2013-03-08 07:51:00,
2013-03-07 23:21:00,33.0,25.0,-100.00,NW,313,3.0,5.0,71,0.00,,,0.00,0.000000,,2013-03-08 08:21:00,
2013-03-07 23:31:00,33.0,25.0,-100.00,NW,313,3.0,5.0,71,0.00,,,0.00,0.000000,,2013-03-08 08:31:00,
2013-03-07 23:41:00,33.0,25.0,-100.00,NW,313,3.0,5.0,71,0.00,,,0.00,0.000000,,2013-03-08 08:41:00,
2013-03-07 23:52:00,33.0,25.0,-100.00,NW,313,3.0,5.0,71,0.00,,,0.00,0.000000,,2013-03-08 08:52:00,